Time;durP1;ratioP1;P1;durP2;ratioP2;P2;SDS_P1;SDS_P2;PMS_P1;PMS_P2;Temp;Humidity;BMP_temperature;BMP_pressure;BME280_temperature;BME280_humidity;BME280_pressure;Samples;Min_cycle;Max_cycle;Signal;HPM_P1;HPM_P2
2023/01/18 00:00:03;;;;;;;10.35;5.13;;;-1.30;99.90;;;;;;5034228;28;20052;-85
2023/01/18 00:02:29;;;;;;;9.05;4.88;;;-1.30;99.90;;;;;;5042505;28;20091;-83
2023/01/18 00:04:55;;;;;;;8.90;5.28;;;-1.20;99.90;;;;;;5050438;28;20585;-84
2023/01/18 00:07:21;;;;;;;10.75;4.53;;;-1.40;99.90;;;;;;5049563;28;20066;-84
2023/01/18 00:09:46;;;;;;;8.82;4.75;;;-1.40;99.90;;;;;;5055251;28;20112;-84
2023/01/18 00:12:12;;;;;;;7.25;4.45;;;-1.40;99.90;;;;;;5051147;28;20071;-84
2023/01/18 00:14:37;;;;;;;9.45;4.90;;;-1.40;99.90;;;;;;5062322;28;20049;-83
2023/01/18 00:17:03;;;;;;;9.40;4.97;;;-1.40;99.90;;;;;;5048301;28;20039;-84
2023/01/18 00:19:29;;;;;;;9.98;4.95;;;-1.50;99.90;;;;;;5048780;28;20053;-84
2023/01/18 00:21:56;;;;;;;9.18;5.28;;;-1.60;99.90;;;;;;5037659;28;20051;-83
2023/01/18 00:24:22;;;;;;;9.63;4.80;;;-1.60;99.90;;;;;;5047551;28;20037;-83
2023/01/18 00:26:49;;;;;;;8.77;5.13;;;-1.60;99.90;;;;;;5035050;28;20044;-83
2023/01/18 00:29:15;;;;;;;6.75;4.78;;;-1.70;99.90;;;;;;5067716;28;20054;-84
2023/01/18 00:31:41;;;;;;;14.15;5.97;;;-1.70;99.90;;;;;;5053588;28;20147;-84
2023/01/18 00:34:06;;;;;;;8.63;5.50;;;-1.70;99.90;;;;;;5072106;28;20052;-84
2023/01/18 00:36:33;;;;;;;10.95;5.93;;;-1.70;99.90;;;;;;5049291;28;20131;-83
2023/01/18 00:38:59;;;;;;;9.75;4.88;;;-1.70;99.90;;;;;;5063725;28;20481;-83
2023/01/18 00:41:25;;;;;;;8.48;5.43;;;-1.60;99.90;;;;;;5039864;28;20044;-84
2023/01/18 00:43:54;;;;;;;9.40;5.32;;;-1.60;99.90;;;;;;5052448;28;20049;-84
2023/01/18 00:46:26;;;;;;;10.85;5.97;;;-1.60;99.90;;;;;;5038854;28;20051;-84
2023/01/18 00:48:51;;;;;;;8.45;5.47;;;-1.60;99.90;;;;;;5054139;28;20090;-82
2023/01/18 00:51:20;;;;;;;12.25;5.90;;;-1.50;99.90;;;;;;5048307;28;20088;-82
2023/01/18 00:53:46;;;;;;;9.32;5.70;;;-1.50;99.90;;;;;;5056819;28;20141;-82
2023/01/18 00:56:18;;;;;;;9.00;5.85;;;-1.50;99.90;;;;;;5029310;28;20098;-82
2023/01/18 00:58:44;;;;;;;10.75;6.50;;;-1.40;99.90;;;;;;5055739;28;20178;-82
2023/01/18 01:01:12;;;;;;;9.20;5.80;;;-1.40;99.90;;;;;;5067628;28;20131;-82
2023/01/18 01:06:44;;;;;;;13.02;5.72;;;-1.40;99.90;;;;;;5062912;28;20088;-82
2023/01/18 01:09:21;;;;;;;11.15;6.13;;;-1.50;99.90;;;;;;5067599;28;20047;-82
2023/01/18 01:28:20;;;;;;;11.45;5.90;;;-1.70;99.90;;;;;;5062169;28;20302;-82
2023/01/18 01:30:45;;;;;;;8.32;5.90;;;-1.70;99.90;;;;;;5054127;28;20082;-82
2023/01/18 01:33:11;;;;;;;8.63;5.63;;;-1.70;99.90;;;;;;5068731;28;20055;-82
2023/01/18 01:35:37;;;;;;;9.05;5.88;;;-1.80;99.90;;;;;;5032231;28;20129;-82
2023/01/18 01:38:03;;;;;;;10.10;6.20;;;-1.90;99.90;;;;;;5044750;28;20040;-83
2023/01/18 01:40:28;;;;;;;9.43;6.28;;;-1.70;99.90;;;;;;5061398;28;20051;-82
2023/01/18 01:42:54;;;;;;;11.25;7.05;;;-1.90;99.90;;;;;;5042778;28;20044;-82
2023/01/18 01:45:23;;;;;;;9.77;7.15;;;-1.90;99.90;;;;;;5062547;28;20039;-81
2023/01/18 01:47:50;;;;;;;11.55;6.55;;;-1.90;99.90;;;;;;5050993;28;20107;-82
2023/01/18 01:50:26;;;;;;;9.90;7.13;;;-1.90;99.90;;;;;;5037048;28;20130;-82
2023/01/18 01:52:52;;;;;;;13.13;6.95;;;-2.00;99.90;;;;;;5071368;28;20048;-82
2023/01/18 01:55:25;;;;;;;14.15;7.05;;;-2.00;99.90;;;;;;5041129;28;20094;-82
2023/01/18 01:57:57;;;;;;;18.52;6.80;;;-2.00;99.90;;;;;;5041160;28;20056;-86
2023/01/18 02:00:23;;;;;;;15.50;8.25;;;-2.00;99.90;;;;;;5063385;28;20048;-82
2023/01/18 02:02:58;;;;;;;12.63;7.63;;;-2.00;99.90;;;;;;5065397;28;20048;-82
2023/01/18 02:05:25;;;;;;;13.80;8.00;;;-1.90;99.90;;;;;;5044538;28;20127;-82
2023/01/18 02:07:52;;;;;;;10.88;7.53;;;-1.90;99.90;;;;;;5045135;28;20047;-82
2023/01/18 02:10:18;;;;;;;10.88;7.80;;;-1.90;99.90;;;;;;5064845;28;20061;-83
2023/01/18 02:12:47;;;;;;;11.95;8.10;;;-1.80;99.90;;;;;;5056595;28;20086;-82
2023/01/18 02:15:13;;;;;;;12.82;7.63;;;-1.80;99.90;;;;;;5071791;28;20420;-81
2023/01/18 02:18:00;;;;;;;11.98;8.05;;;-1.80;99.90;;;;;;5064039;28;20126;-82
2023/01/18 02:21:04;;;;;;;12.90;8.00;;;-1.80;99.90;;;;;;5051257;28;20445;-81
2023/01/18 02:24:07;;;;;;;12.45;7.95;;;-1.70;99.90;;;;;;5056454;28;20033;-82
2023/01/18 02:26:57;;;;;;;12.88;7.43;;;-1.70;99.90;;;;;;5026239;28;20048;-81
2023/01/18 02:29:36;;;;;;;13.18;7.80;;;-1.70;99.90;;;;;;5043960;28;20565;-81
2023/01/18 02:32:16;;;;;;;15.27;7.80;;;-1.70;99.90;;;;;;5043075;28;20391;-82
2023/01/18 02:34:51;;;;;;;10.77;7.70;;;-1.70;99.90;;;;;;5064857;28;20077;-81
2023/01/18 02:37:47;;;;;;;10.73;7.83;;;-1.70;99.90;;;;;;5061111;28;20056;-82
2023/01/18 02:40:45;;;;;;;16.90;7.78;;;-1.70;99.90;;;;;;5069241;28;20048;-83
2023/01/18 02:48:45;;;;;;;14.73;7.85;;;-1.80;99.90;;;;;;5065570;28;20052;-81
2023/01/18 02:51:11;;;;;;;12.18;7.72;;;-1.90;99.90;;;;;;5057025;28;20044;-82
2023/01/18 02:53:42;;;;;;;12.82;8.02;;;-2.00;99.90;;;;;;5035425;28;20043;-82
2023/01/18 02:56:12;;;;;;;12.25;8.15;;;-2.00;99.90;;;;;;5059328;28;20159;-81
2023/01/18 02:58:52;;;;;;;13.88;8.48;;;-2.10;99.90;;;;;;5041117;28;20050;-81
2023/01/18 03:01:37;;;;;;;12.43;8.00;;;-2.10;99.90;;;;;;5055946;28;20519;-81
2023/01/18 03:04:16;;;;;;;14.02;8.48;;;-2.10;99.90;;;;;;5044906;28;20059;-81
2023/01/18 03:06:47;;;;;;;15.52;8.35;;;-2.20;99.90;;;;;;5072633;28;20044;-81
2023/01/18 03:09:20;;;;;;;17.85;8.88;;;-2.20;99.90;;;;;;5051698;28;20048;-82
2023/01/18 03:12:10;;;;;;;13.40;8.50;;;-2.30;99.90;;;;;;5059245;28;20051;-82
2023/01/18 03:15:07;;;;;;;14.15;8.50;;;-2.30;99.90;;;;;;5049036;28;20040;-81
2023/01/18 03:17:53;;;;;;;;;;;-2.30;99.90;;;;;;5057161;28;20046;-82
2023/01/18 03:20:26;;;;;;;13.50;8.60;;;-2.30;99.90;;;;;;5044931;28;19920;-86
2023/01/18 03:25:52;;;;;;;16.65;10.27;;;-2.30;99.90;;;;;;5068374;28;20412;-83
2023/01/18 03:34:16;;;;;;;17.13;9.73;;;-2.20;99.90;;;;;;5061299;28;20056;-83
2023/01/18 03:36:47;;;;;;;14.15;9.32;;;-2.20;99.90;;;;;;5055844;28;20048;-81
2023/01/18 03:39:38;;;;;;;21.30;9.80;;;-2.30;99.90;;;;;;5078109;28;20048;-81
2023/01/18 03:42:14;;;;;;;19.83;11.07;;;-2.20;99.90;;;;;;5065999;28;20039;-81
2023/01/18 03:44:49;;;;;;;16.38;10.45;;;-2.30;99.90;;;;;;5050609;28;20048;-82
2023/01/18 03:47:14;;;;;;;18.35;10.43;;;-2.20;99.90;;;;;;5066809;28;20056;-82
2023/01/18 03:49:40;;;;;;;17.55;11.57;;;-2.30;99.90;;;;;;5037211;28;20110;-82
2023/01/18 03:52:06;;;;;;;22.98;10.50;;;-2.30;99.90;;;;;;5065625;28;20501;-82
2023/01/18 03:54:45;;;;;;;16.73;10.95;;;-2.30;99.90;;;;;;5061073;28;20048;-81
2023/01/18 03:57:30;;;;;;;19.73;11.52;;;-2.30;99.90;;;;;;5052922;28;20047;-81
2023/01/18 03:59:56;;;;;;;26.27;11.32;;;-2.30;99.90;;;;;;5065446;28;20059;-81
2023/01/18 04:02:22;;;;;;;20.45;10.73;;;-2.30;99.90;;;;;;5066297;28;20044;-82
2023/01/18 04:04:48;;;;;;;16.42;10.75;;;-2.30;99.90;;;;;;5055759;28;20055;-82
2023/01/18 04:07:14;;;;;;;20.35;10.98;;;-2.20;99.90;;;;;;5035219;28;20056;-82
2023/01/18 04:09:40;;;;;;;17.30;11.25;;;-2.20;99.90;;;;;;5020908;28;20059;-82
2023/01/18 04:12:06;;;;;;;16.13;10.45;;;-2.10;99.90;;;;;;5036568;28;20048;-83
2023/01/18 04:14:32;;;;;;;16.90;11.13;;;-2.10;99.90;;;;;;5058016;28;20076;-81
2023/01/18 04:16:57;;;;;;;16.95;10.57;;;-2.10;99.90;;;;;;5044826;28;20056;-81
2023/01/18 04:19:23;;;;;;;19.77;10.82;;;-2.10;99.90;;;;;;5066046;28;20120;-81
2023/01/18 04:21:49;;;;;;;17.38;10.32;;;-2.20;99.90;;;;;;5062681;28;20036;-81
2023/01/18 04:24:16;;;;;;;17.60;11.15;;;-2.20;99.90;;;;;;5034703;28;20078;-82
2023/01/18 04:26:41;;;;;;;17.85;10.82;;;-2.20;99.90;;;;;;5046891;28;20127;-81
2023/01/18 04:29:07;;;;;;;19.88;11.15;;;-2.20;99.90;;;;;;5040390;28;20127;-81
2023/01/18 04:31:33;;;;;;;19.77;10.50;;;-2.20;99.90;;;;;;5065719;28;20032;-81
2023/01/18 04:33:59;;;;;;;17.08;9.45;;;-2.30;99.90;;;;;;5063150;28;20102;-81
2023/01/18 04:36:25;;;;;;;15.93;10.07;;;-2.30;99.90;;;;;;5065129;28;20070;-81
2023/01/18 04:38:54;;;;;;;16.05;9.88;;;-2.30;99.90;;;;;;5051860;28;20124;-82
2023/01/18 04:41:20;;;;;;;19.75;10.98;;;-2.30;99.90;;;;;;5069722;28;20086;-81
2023/01/18 04:43:46;;;;;;;17.33;10.07;;;-2.30;99.90;;;;;;5040371;28;20115;-80
2023/01/18 04:46:13;;;;;;;17.95;11.02;;;-2.30;99.90;;;;;;5045174;28;20049;-81
2023/01/18 04:48:39;;;;;;;17.05;11.15;;;-2.30;99.90;;;;;;5051542;28;20406;-81
2023/01/18 04:51:12;;;;;;;14.10;9.27;;;-2.30;99.90;;;;;;5035039;28;20044;-81
2023/01/18 04:53:42;;;;;;;20.23;10.43;;;-2.30;99.90;;;;;;5058925;28;20048;-81
2023/01/18 04:56:09;;;;;;;17.92;10.77;;;-2.30;99.90;;;;;;5046145;28;20496;-81
2023/01/18 04:58:35;;;;;;;18.58;10.88;;;-2.30;99.90;;;;;;5048889;28;20066;-81
2023/01/18 05:01:06;;;;;;;17.50;9.63;;;-2.30;99.90;;;;;;5063538;28;20071;-81
2023/01/18 05:03:36;;;;;;;15.10;10.18;;;-2.30;99.90;;;;;;5065423;28;20109;-82
2023/01/18 05:06:07;;;;;;;17.67;10.63;;;-2.30;99.90;;;;;;5048926;28;20189;-82
2023/01/18 05:08:34;;;;;;;17.83;10.02;;;-2.30;99.90;;;;;;5070503;28;20047;-86
2023/01/18 05:11:04;;;;;;;15.40;9.93;;;-2.30;99.90;;;;;;5035162;28;20083;-82
2023/01/18 05:13:31;;;;;;;19.63;10.73;;;-2.30;99.90;;;;;;5054025;28;20634;-82
2023/01/18 05:15:58;;;;;;;21.58;9.98;;;-2.30;99.90;;;;;;5047437;28;20091;-83
2023/01/18 05:18:24;;;;;;;15.95;10.55;;;-2.30;99.90;;;;;;5054647;28;20055;-83
2023/01/18 05:20:50;;;;;;;18.33;11.18;;;-2.30;99.90;;;;;;5061307;28;20122;-82
2023/01/18 05:23:16;;;;;;;18.33;11.98;;;-2.30;99.90;;;;;;5062920;28;20051;-82
2023/01/18 05:25:42;;;;;;;20.13;11.25;;;-2.30;99.90;;;;;;5065103;28;20040;-83
2023/01/18 05:28:08;;;;;;;18.08;11.38;;;-2.10;99.90;;;;;;5055197;28;20044;-82
2023/01/18 05:30:39;;;;;;;21.02;11.80;;;-2.30;99.90;;;;;;5065585;28;20083;-82
2023/01/18 05:33:04;;;;;;;18.80;12.23;;;-2.30;99.90;;;;;;5050557;28;20044;-82
2023/01/18 05:35:31;;;;;;;16.38;11.60;;;-2.30;99.90;;;;;;5049422;28;20050;-82
2023/01/18 05:37:56;;;;;;;22.23;12.20;;;-2.30;99.90;;;;;;5049647;28;20056;-82
2023/01/18 05:40:22;;;;;;;19.77;12.73;;;-2.20;99.90;;;;;;5042263;28;20151;-82
2023/01/18 05:42:48;;;;;;;18.13;11.52;;;-2.30;99.90;;;;;;5060167;28;20560;-83
2023/01/18 05:45:13;;;;;;;20.27;12.00;;;-2.30;99.90;;;;;;5039866;28;20048;-83
2023/01/18 05:47:40;;;;;;;20.58;13.38;;;-2.20;99.90;;;;;;5037284;28;20056;-85
2023/01/18 05:50:06;;;;;;;20.02;12.57;;;-2.20;99.90;;;;;;5050104;28;20041;-83
2023/01/18 05:52:32;;;;;;;21.60;12.27;;;-2.20;99.90;;;;;;5044668;28;20094;-83
2023/01/18 05:54:58;;;;;;;19.33;13.07;;;-2.20;99.90;;;;;;5044883;28;20056;-83
2023/01/18 05:57:24;;;;;;;21.42;12.48;;;-2.00;99.90;;;;;;5041338;28;20119;-82
2023/01/18 05:59:50;;;;;;;20.05;11.82;;;-2.20;99.90;;;;;;5063979;28;20040;-84
2023/01/18 06:02:17;;;;;;;19.90;11.68;;;-2.20;99.90;;;;;;5066046;28;20382;-84
2023/01/18 06:04:43;;;;;;;17.27;11.73;;;-2.20;99.90;;;;;;5041878;28;20161;-85
2023/01/18 06:07:13;;;;;;;21.13;11.88;;;-2.20;99.90;;;;;;5042646;28;20052;-82
2023/01/18 06:09:39;;;;;;;21.75;12.30;;;-2.20;99.90;;;;;;5043489;28;20387;-83
2023/01/18 06:12:05;;;;;;;18.00;11.63;;;-2.00;99.90;;;;;;5065930;28;20043;-83
2023/01/18 06:14:31;;;;;;;22.75;12.90;;;-2.20;99.90;;;;;;5025172;28;20704;-82
2023/01/18 06:16:57;;;;;;;20.50;11.57;;;-2.10;99.90;;;;;;5060301;28;20040;-85
2023/01/18 06:19:23;;;;;;;19.67;11.38;;;-2.20;99.90;;;;;;5050089;28;20039;-81
2023/01/18 06:21:48;;;;;;;21.75;11.75;;;-2.20;99.90;;;;;;5043300;28;20048;-81
2023/01/18 06:24:14;;;;;;;18.52;11.68;;;-2.10;99.90;;;;;;5017558;28;20051;-82
2023/01/18 06:26:40;;;;;;;16.95;10.98;;;-2.20;99.90;;;;;;5066038;28;20049;-82
2023/01/18 06:29:05;;;;;;;19.45;12.40;;;-2.20;99.90;;;;;;5047990;28;20943;-82
2023/01/18 06:31:31;;;;;;;22.35;12.70;;;-2.10;99.90;;;;;;5073606;28;20055;-83
2023/01/18 06:33:56;;;;;;;19.95;10.70;;;-2.10;99.90;;;;;;5038793;28;20076;-82
2023/01/18 06:36:22;;;;;;;18.02;11.35;;;-2.10;99.90;;;;;;5054338;28;20033;-83
2023/01/18 06:38:48;;;;;;;20.13;10.85;;;-2.10;99.90;;;;;;5070220;28;20071;-84
2023/01/18 06:41:14;;;;;;;19.58;10.93;;;-2.00;99.90;;;;;;5049641;28;20037;-83
2023/01/18 06:43:40;;;;;;;18.85;11.40;;;-2.00;99.90;;;;;;5034275;28;20055;-82
2023/01/18 06:46:08;;;;;;;17.83;9.90;;;-2.00;99.90;;;;;;5060908;28;20880;-83
2023/01/18 06:48:39;;;;;;;16.45;9.45;;;-1.90;99.90;;;;;;5061695;28;20040;-83
2023/01/18 06:51:05;;;;;;;17.98;10.48;;;-1.90;99.90;;;;;;5028280;28;20032;-82
2023/01/18 06:53:31;;;;;;;17.15;10.50;;;-1.90;99.90;;;;;;5037417;28;20047;-79
2023/01/18 06:56:00;;;;;;;19.90;9.32;;;-1.90;99.90;;;;;;5060216;28;20055;-83
2023/01/18 06:58:27;;;;;;;17.92;9.73;;;-1.90;99.90;;;;;;5047413;28;20057;-82
2023/01/18 07:00:57;;;;;;;16.27;9.90;;;-1.80;99.90;;;;;;5061541;28;20048;-81
2023/01/18 07:03:23;;;;;;;17.42;8.38;;;-1.90;99.90;;;;;;5052899;28;20040;-81
2023/01/18 07:05:51;;;;;;;15.18;9.05;;;-1.90;99.90;;;;;;5069534;28;20460;-85
2023/01/18 07:08:19;;;;;;;15.60;8.73;;;-1.80;99.90;;;;;;5040156;28;20451;-83
2023/01/18 07:10:49;;;;;;;15.80;8.35;;;-1.80;99.90;;;;;;5051088;28;20052;-84
2023/01/18 07:13:15;;;;;;;19.77;8.70;;;-1.80;99.90;;;;;;5051763;28;20047;-83
2023/01/18 07:15:40;;;;;;;18.30;7.72;;;-1.80;99.90;;;;;;5053680;28;20377;-80
2023/01/18 07:18:06;;;;;;;15.13;8.48;;;-1.90;99.90;;;;;;5053311;28;20097;-84
2023/01/18 07:20:32;;;;;;;18.17;9.13;;;-1.70;99.90;;;;;;5035924;28;20048;-83
2023/01/18 07:22:58;;;;;;;13.18;8.20;;;-1.70;99.90;;;;;;5047104;28;20049;-83
2023/01/18 07:25:24;;;;;;;15.77;8.15;;;-1.80;99.90;;;;;;5050123;28;20040;-83
2023/01/18 07:27:50;;;;;;;14.23;8.43;;;-1.90;99.90;;;;;;5066796;28;20408;-82
2023/01/18 07:30:16;;;;;;;14.52;8.68;;;-1.90;99.90;;;;;;5053742;28;20043;-82
2023/01/18 07:32:50;;;;;;;16.23;7.88;;;-1.90;99.90;;;;;;5066334;28;20044;-83
2023/01/18 07:35:20;;;;;;;19.17;9.10;;;-1.90;99.90;;;;;;5067751;28;20065;-82
2023/01/18 07:37:52;;;;;;;16.65;9.30;;;-1.90;99.90;;;;;;5070790;28;20055;-83
2023/01/18 07:40:20;;;;;;;16.50;8.88;;;-1.90;99.90;;;;;;5048711;28;20048;-83
2023/01/18 07:42:47;;;;;;;17.42;9.55;;;-2.00;99.90;;;;;;5071023;28;20066;-82
2023/01/18 07:45:13;;;;;;;19.38;8.95;;;-2.00;99.90;;;;;;5070749;28;20481;-82
2023/01/18 07:47:42;;;;;;;15.98;9.05;;;-2.00;99.90;;;;;;5070527;28;20065;-83
2023/01/18 07:50:08;;;;;;;25.88;10.68;;;-2.10;99.90;;;;;;5037601;28;20048;-82
2023/01/18 07:52:34;;;;;;;17.48;10.00;;;-2.00;99.90;;;;;;5054896;28;20035;-83
2023/01/18 07:55:00;;;;;;;15.68;9.00;;;-2.00;99.90;;;;;;5044672;28;20051;-82
2023/01/18 07:57:25;;;;;;;19.02;9.40;;;-2.00;99.90;;;;;;5049271;28;20060;-83
2023/01/18 07:59:51;;;;;;;17.10;9.50;;;-2.10;99.90;;;;;;5051357;28;20040;-82
2023/01/18 08:02:17;;;;;;;16.45;8.70;;;-1.90;99.90;;;;;;5054550;28;20044;-81
2023/01/18 08:04:44;;;;;;;17.10;9.43;;;-2.10;99.90;;;;;;5035510;28;20044;-83
2023/01/18 08:07:10;;;;;;;17.35;9.35;;;-2.10;99.90;;;;;;5070302;28;20060;-83
2023/01/18 08:09:35;;;;;;;15.52;9.73;;;-2.10;99.90;;;;;;5053087;28;20055;-82
2023/01/18 08:12:01;;;;;;;18.05;10.10;;;-2.00;99.90;;;;;;5066872;28;20044;-82
2023/01/18 08:14:27;;;;;;;16.95;9.75;;;-2.00;99.90;;;;;;5067060;28;20079;-83
2023/01/18 08:16:52;;;;;;;17.65;10.23;;;-1.90;99.90;;;;;;5057815;28;20048;-82
2023/01/18 08:19:18;;;;;;;16.10;10.00;;;-1.90;99.90;;;;;;5065804;28;20055;-82
2023/01/18 08:21:46;;;;;;;19.70;9.82;;;-1.90;99.90;;;;;;5044050;28;20052;-82
2023/01/18 08:24:12;;;;;;;19.50;10.10;;;-1.90;99.90;;;;;;5050915;28;20128;-84
2023/01/18 08:26:38;;;;;;;17.58;10.25;;;-1.90;99.90;;;;;;5052432;28;20138;-82
2023/01/18 08:29:04;;;;;;;18.95;11.10;;;-1.90;99.90;;;;;;5067816;28;20426;-84
2023/01/18 08:31:29;;;;;;;17.45;10.30;;;-1.90;99.90;;;;;;5064065;28;20135;-83
2023/01/18 08:33:55;;;;;;;18.25;10.30;;;-1.90;99.90;;;;;;5048670;28;20052;-84
2023/01/18 08:36:24;;;;;;;17.83;11.27;;;-1.90;99.90;;;;;;5045529;28;20043;-83
2023/01/18 08:38:56;;;;;;;15.57;10.43;;;-1.90;99.90;;;;;;5063370;28;20056;-85
2023/01/18 08:41:27;;;;;;;20.02;10.93;;;-1.90;99.90;;;;;;5054861;28;20568;-83
2023/01/18 08:43:53;;;;;;;22.88;11.23;;;-1.90;99.90;;;;;;5018933;28;20040;-82
2023/01/18 08:46:20;;;;;;;19.02;10.85;;;-1.80;99.90;;;;;;5053178;28;20516;-83
2023/01/18 08:48:54;;;;;;;20.05;10.98;;;-1.80;99.90;;;;;;5047783;28;20036;-83
2023/01/18 08:51:21;;;;;;;16.45;10.88;;;-1.80;99.90;;;;;;5064723;28;20045;-83
2023/01/18 08:53:51;;;;;;;19.38;11.63;;;-1.80;99.90;;;;;;5044825;28;20052;-82
2023/01/18 08:56:20;;;;;;;21.67;11.80;;;-1.80;99.90;;;;;;5050737;28;20533;-82
2023/01/18 08:59:49;;;;;;;18.05;11.68;;;-1.70;99.90;;;;;;5015988;28;20048;-82
2023/01/18 09:02:24;;;;;;;17.38;11.57;;;-1.70;99.90;;;;;;5056594;28;20063;-83
2023/01/18 09:04:55;;;;;;;17.98;11.25;;;-1.70;99.90;;;;;;5046612;28;20130;-83
2023/01/18 09:07:21;;;;;;;24.73;12.95;;;-1.70;99.90;;;;;;5032656;28;20187;-81
2023/01/18 09:09:47;;;;;;;22.27;12.20;;;-1.60;99.90;;;;;;5044804;28;20405;-80
2023/01/18 09:12:13;;;;;;;18.45;12.10;;;-1.60;99.90;;;;;;5044393;28;20058;-83
2023/01/18 09:14:39;;;;;;;20.33;11.90;;;-1.60;99.90;;;;;;5060754;28;20056;-81
2023/01/18 09:17:05;;;;;;;20.02;12.25;;;-1.50;99.90;;;;;;5028537;28;20086;-85
2023/01/18 09:19:31;;;;;;;19.00;12.32;;;-1.40;99.90;;;;;;5058405;28;20071;-83
2023/01/18 09:21:59;;;;;;;20.50;12.95;;;-1.40;99.90;;;;;;5047486;28;20110;-83
2023/01/18 09:24:25;;;;;;;20.70;12.07;;;-1.30;99.90;;;;;;5059077;28;20516;-82
2023/01/18 09:26:52;;;;;;;24.58;12.65;;;-1.30;99.90;;;;;;5047272;28;20059;-82
2023/01/18 09:29:18;;;;;;;18.77;11.95;;;-1.20;99.90;;;;;;5043659;28;20407;-82
2023/01/18 09:31:47;;;;;;;18.90;12.30;;;-1.20;99.90;;;;;;5058979;28;20090;-82
2023/01/18 09:34:14;;;;;;;19.70;11.48;;;-1.00;99.90;;;;;;5059067;28;20044;-82
2023/01/18 09:36:42;;;;;;;22.98;11.48;;;-1.10;99.90;;;;;;5058761;28;20049;-82
2023/01/18 09:39:10;;;;;;;18.65;11.75;;;-1.00;99.90;;;;;;5066146;28;20105;-85
2023/01/18 09:41:41;;;;;;;22.95;12.10;;;-0.90;99.90;;;;;;5058956;28;20131;-81
2023/01/18 09:44:16;;;;;;;17.55;11.23;;;-0.80;99.90;;;;;;5057727;28;20538;-81
2023/01/18 09:46:43;;;;;;;18.33;11.05;;;-0.80;99.90;;;;;;5038997;28;20524;-81
2023/01/18 09:49:21;;;;;;;19.05;11.40;;;-0.80;99.90;;;;;;5069253;28;20137;-85
2023/01/18 09:52:04;;;;;;;18.25;11.25;;;-0.70;99.90;;;;;;5059282;28;20048;-82
2023/01/18 09:54:53;;;;;;;21.88;12.13;;;-0.60;99.90;;;;;;5050249;28;20512;-83
2023/01/18 09:57:37;;;;;;;19.88;11.82;;;-0.60;99.90;;;;;;5042148;28;20080;-81
2023/01/18 10:00:17;;;;;;;16.98;11.10;;;-0.50;99.90;;;;;;5046027;28;20123;-82
2023/01/18 10:02:45;;;;;;;16.65;11.00;;;-0.50;99.90;;;;;;5041888;28;20531;-79
2023/01/18 10:05:20;;;;;;;19.63;11.80;;;-0.50;99.90;;;;;;5056790;28;20084;-85
2023/01/18 10:08:12;;;;;;;22.15;11.20;;;-0.40;99.90;;;;;;5046414;28;20052;-82
2023/01/18 10:11:09;;;;;;;16.70;11.20;;;-0.30;99.90;;;;;;5064672;28;20040;-83
2023/01/18 10:13:36;;;;;;;;;;;-0.30;99.90;;;;;;5028841;28;20098;-82
2023/01/18 10:16:03;;;;;;;17.55;10.63;;;-0.30;99.90;;;;;;5065381;28;20327;-82
2023/01/18 10:18:29;;;;;;;17.88;10.60;;;-0.20;99.90;;;;;;5052920;28;20478;-82
2023/01/18 10:20:59;;;;;;;19.90;11.68;;;-0.10;99.90;;;;;;5066693;28;20047;-82
2023/01/18 10:23:39;;;;;;;18.73;11.38;;;0.00;99.90;;;;;;5039788;28;20053;-82
2023/01/18 10:26:15;;;;;;;17.20;10.80;;;0.00;99.90;;;;;;5047624;28;20394;-83
2023/01/18 10:28:45;;;;;;;;;;;0.10;99.90;;;;;;5070861;28;20055;-82
2023/01/18 10:31:38;;;;;;;17.48;10.30;;;0.10;99.90;;;;;;5043421;28;19924;-81
2023/01/18 10:34:15;;;;;;;21.63;10.18;;;0.20;99.90;;;;;;5062411;28;20043;-81
2023/01/18 10:36:45;;;;;;;18.70;10.13;;;0.20;99.90;;;;;;5064226;28;20572;-84
2023/01/18 10:39:49;;;;;;;17.55;10.27;;;0.30;99.90;;;;;;5054628;28;20058;-83
2023/01/18 10:42:22;;;;;;;15.55;9.77;;;0.30;99.90;;;;;;5049254;28;20518;-83
2023/01/18 10:44:48;;;;;;;13.40;9.52;;;0.30;99.90;;;;;;5044012;28;20048;-83
2023/01/18 10:47:18;;;;;;;16.80;10.15;;;0.40;99.90;;;;;;5073338;28;20045;-82
2023/01/18 10:49:47;;;;;;;16.33;9.32;;;0.50;99.90;;;;;;5047655;28;20044;-82
2023/01/18 10:52:29;;;;;;;17.17;9.38;;;0.50;99.90;;;;;;5071491;28;20051;-82
2023/01/18 10:54:58;;;;;;;14.80;9.32;;;0.50;99.90;;;;;;5062297;28;20135;-82
2023/01/18 10:57:34;;;;;;;13.95;8.60;;;0.60;99.90;;;;;;5047697;28;20072;-82
2023/01/18 11:00:02;;;;;;;21.55;9.10;;;0.70;99.90;;;;;;5069876;28;20048;-83
2023/01/18 11:02:36;;;;;;;20.95;8.95;;;0.70;99.90;;;;;;5035184;28;20037;-84
2023/01/18 11:05:31;;;;;;;14.27;8.32;;;0.80;99.90;;;;;;5069745;28;20122;-81
2023/01/18 11:08:22;;;;;;;14.27;7.68;;;0.80;99.90;;;;;;5048220;28;20084;-81
2023/01/18 11:14:22;;;;;;;13.38;8.18;;;0.90;99.90;;;;;;5048201;28;20066;-84
2023/01/18 11:16:58;;;;;;;25.30;9.48;;;1.00;99.90;;;;;;5050709;28;20056;-84
2023/01/18 11:19:24;;;;;;;;;;;1.20;99.90;;;;;;5052967;28;20553;-85
2023/01/18 11:21:52;;;;;;;15.35;8.18;;;1.20;99.90;;;;;;5036251;28;19994;-84
2023/01/18 11:24:23;;;;;;;11.32;6.63;;;1.20;99.90;;;;;;5010129;28;20040;-84
2023/01/18 11:27:12;;;;;;;12.15;7.05;;;1.40;99.90;;;;;;5035232;28;20486;-84
2023/01/18 11:29:43;;;;;;;8.95;7.00;;;1.30;99.90;;;;;;5050051;28;20060;-84
2023/01/18 11:32:27;;;;;;;14.20;7.30;;;1.40;99.90;;;;;;5036820;28;20052;-84
2023/01/18 11:34:56;;;;;;;14.65;6.47;;;1.50;99.90;;;;;;5049553;28;20045;-84
2023/01/18 11:37:35;;;;;;;12.40;6.60;;;1.50;99.90;;;;;;5048686;28;20072;-89
2023/01/18 11:40:21;;;;;;;9.75;6.78;;;1.60;99.90;;;;;;5045076;28;20048;-89
2023/01/18 11:42:49;;;;;;;10.40;6.63;;;1.70;99.90;;;;;;5052174;28;20099;-84
2023/01/18 11:45:18;;;;;;;11.75;6.70;;;1.80;99.90;;;;;;5049384;28;20059;-83
2023/01/18 11:47:52;;;;;;;11.38;6.75;;;1.80;99.90;;;;;;5052297;28;20087;-84
2023/01/18 11:50:34;;;;;;;10.95;6.15;;;1.90;99.90;;;;;;5050072;28;20527;-84
2023/01/18 11:53:12;;;;;;;13.35;6.93;;;2.10;99.90;;;;;;5049723;28;20461;-85
2023/01/18 11:55:46;;;;;;;12.82;6.78;;;2.20;99.90;;;;;;5031989;28;20054;-88
2023/01/18 11:58:41;;;;;;;10.38;6.95;;;2.20;99.90;;;;;;5037612;28;20055;-83
2023/01/18 12:01:42;;;;;;;11.48;5.93;;;2.30;99.90;;;;;;5019981;28;20061;-85
2023/01/18 12:04:16;;;;;;;12.25;5.70;;;2.30;99.90;;;;;;5032663;28;20055;-84
2023/01/18 12:07:02;;;;;;;12.05;6.15;;;2.40;99.90;;;;;;5040992;28;20067;-85
2023/01/18 12:09:34;;;;;;;10.82;6.07;;;2.50;99.90;;;;;;5030841;28;20497;-89
2023/01/18 12:12:19;;;;;;;9.65;5.25;;;2.50;99.90;;;;;;5044944;28;20068;-84
2023/01/18 12:15:04;;;;;;;9.18;5.63;;;2.50;99.90;;;;;;5033329;28;20048;-89
2023/01/18 12:17:46;;;;;;;9.93;5.18;;;2.50;99.90;;;;;;5047036;28;20520;-90
2023/01/18 12:20:36;;;;;;;12.30;4.75;;;2.50;99.90;;;;;;5036705;28;20066;-89
2023/01/18 12:23:16;;;;;;;8.18;4.75;;;2.70;99.90;;;;;;5037452;28;20047;-89
2023/01/18 12:25:56;;;;;;;10.15;5.07;;;2.80;99.90;;;;;;5039619;28;20059;-90
2023/01/18 12:28:49;;;;;;;9.82;4.72;;;2.90;99.90;;;;;;5028884;28;20051;-90
2023/01/18 12:31:56;;;;;;;6.95;4.55;;;2.90;99.90;;;;;;5050769;28;20052;-89
2023/01/18 12:35:08;;;;;;;6.28;4.15;;;3.00;99.90;;;;;;5037912;28;20111;-90
2023/01/18 12:41:16;;;;;;;8.68;4.90;;;3.10;99.90;;;;;;5034216;28;20051;-91
2023/01/18 12:44:37;;;;;;;10.55;4.68;;;3.20;99.90;;;;;;5044091;28;20048;-91
2023/01/18 12:47:15;;;;;;;9.18;5.28;;;3.10;99.90;;;;;;5031731;28;20053;-92
2023/01/18 12:53:55;;;;;;;8.38;4.70;;;3.00;99.90;;;;;;5051157;28;20123;-89
2023/01/18 12:56:38;;;;;;;8.50;4.60;;;3.10;99.90;;;;;;5035992;28;20048;-91
2023/01/18 12:59:46;;;;;;;12.07;5.50;;;3.20;99.90;;;;;;5050340;28;20098;-89
2023/01/18 13:05:22;;;;;;;8.23;5.30;;;3.20;99.90;;;;;;5040599;28;20048;-88
2023/01/18 13:08:35;;;;;;;;;;;;;;;;;;;;;
2023/01/18 13:11:57;;;;;;;11.40;4.85;;;3.20;99.90;;;;;;5081708;28;20083;-88
2023/01/18 13:18:07;;;;;;;12.15;5.45;;;3.40;99.90;;;;;;5053145;28;20045;-87
2023/01/18 13:20:53;;;;;;;10.20;5.05;;;3.40;99.90;;;;;;5071751;28;20044;-89
2023/01/18 13:23:58;;;;;;;;;;;;;;;;;;;;;
2023/01/18 13:26:48;;;;;;;9.15;5.28;;;3.50;99.90;;;;;;5069450;28;20040;-89
2023/01/18 13:29:28;;;;;;;11.02;4.88;;;3.60;99.90;;;;;;5074093;28;20071;-87
2023/01/18 13:32:00;;;;;;;8.25;5.30;;;3.60;99.90;;;;;;5088596;28;20108;-87
2023/01/18 13:34:40;;;;;;;10.02;5.10;;;3.60;99.90;;;;;;5073202;28;20083;-89
2023/01/18 13:37:40;;;;;;;10.55;4.97;;;3.70;99.90;;;;;;5073790;28;20047;-87
2023/01/18 13:40:29;;;;;;;7.25;4.93;;;3.70;99.90;;;;;;5082970;28;20040;-86
2023/01/18 13:43:06;;;;;;;7.53;5.00;;;3.70;99.90;;;;;;5077291;28;20122;-89
2023/01/18 13:46:18;;;;;;;14.65;5.22;;;3.70;99.90;;;;;;5062298;28;20119;-88
2023/01/18 13:49:22;;;;;;;7.85;4.60;;;3.70;99.90;;;;;;5060424;28;20083;-87
2023/01/18 13:52:30;;;;;;;8.45;4.85;;;3.70;99.90;;;;;;5089451;28;20040;-87
2023/01/18 13:55:33;;;;;;;;;;;;;;;;;;;;;
2023/01/18 13:58:00;;;;;;;9.10;5.10;;;3.60;99.90;;;;;;5075478;28;20048;-87
2023/01/18 14:00:34;;;;;;;11.82;5.82;;;3.60;99.90;;;;;;5084359;28;20483;-89